createdAt,value
2023-01-19T00:00:49.837Z,12.65
2023-01-19T00:03:22.275Z,13.98
2023-01-19T00:05:54.579Z,13.35
2023-01-19T00:08:27.103Z,11.75
2023-01-19T00:10:59.628Z,13.00
2023-01-19T00:13:32.222Z,12.00
2023-01-19T00:16:04.421Z,12.45
2023-01-19T00:18:36.546Z,12.35
2023-01-19T00:21:08.600Z,13.13
2023-01-19T00:23:41.257Z,13.20
2023-01-19T00:26:17.259Z,12.63
2023-01-19T00:28:50.407Z,11.95
2023-01-19T00:31:25.246Z,12.60
2023-01-19T00:33:57.326Z,12.45
2023-01-19T00:36:29.455Z,12.82
2023-01-19T00:39:01.628Z,13.00
2023-01-19T00:41:56.427Z,12.82
2023-01-19T00:44:29.127Z,13.80
2023-01-19T00:47:04.042Z,12.55
2023-01-19T00:49:37.303Z,12.75
2023-01-19T00:52:09.425Z,12.48
2023-01-19T00:54:41.445Z,14.10
2023-01-19T00:57:13.516Z,13.07
2023-01-19T00:59:45.931Z,13.13
2023-01-19T01:02:18.205Z,12.85
2023-01-19T01:04:54.984Z,12.95
2023-01-19T01:07:27.013Z,13.90
2023-01-19T01:09:58.983Z,13.90
2023-01-19T01:12:30.947Z,12.77
2023-01-19T01:15:04.745Z,14.18
2023-01-19T01:17:38.196Z,13.48
2023-01-19T01:20:11.556Z,14.00
2023-01-19T01:22:48.906Z,13.30
2023-01-19T01:25:23.555Z,14.13
2023-01-19T01:27:55.666Z,14.57
2023-01-19T01:30:27.849Z,15.93
2023-01-19T01:33:00.165Z,15.70
2023-01-19T01:35:34.100Z,15.45
2023-01-19T01:38:06.599Z,15.23
2023-01-19T01:40:42.206Z,17.08
2023-01-19T01:43:17.870Z,16.73
2023-01-19T01:45:49.899Z,16.10
2023-01-19T01:48:28.222Z,16.17
2023-01-19T01:51:25.791Z,16.52
2023-01-19T01:54:30.417Z,16.95
2023-01-19T01:57:08.700Z,16.13
2023-01-19T01:59:45.797Z,16.95
2023-01-19T02:02:45.910Z,15.93
2023-01-19T02:05:34.939Z,16.38
2023-01-19T02:08:44.463Z,16.98
2023-01-19T02:11:35.696Z,16.45
2023-01-19T02:14:08.181Z,16.35
2023-01-19T02:16:40.404Z,17.65
2023-01-19T02:19:19.535Z,15.40
2023-01-19T02:22:10.038Z,16.75
2023-01-19T02:24:43.096Z,17.23
2023-01-19T02:27:15.918Z,16.95
2023-01-19T02:29:48.272Z,17.58
2023-01-19T02:32:23.653Z,16.17
2023-01-19T02:34:56.003Z,15.70
2023-01-19T02:37:34.300Z,16.25
2023-01-19T02:40:12.531Z,17.83
2023-01-19T02:42:50.366Z,16.75
2023-01-19T02:45:23.584Z,15.55
2023-01-19T02:47:55.609Z,17.20
2023-01-19T02:50:49.556Z,17.02
2023-01-19T02:53:35.860Z,16.95
2023-01-19T02:56:44.544Z,17.13
2023-01-19T02:59:48.798Z,16.42
2023-01-19T03:02:55.248Z,15.95
2023-01-19T03:05:37.881Z,16.35
2023-01-19T03:08:18.969Z,15.68
2023-01-19T03:11:12.027Z,16.27
2023-01-19T03:14:01.646Z,16.60
2023-01-19T03:16:43.178Z,16.50
2023-01-19T03:19:20.581Z,17.55
2023-01-19T03:22:04.404Z,16.92
2023-01-19T03:24:43.374Z,17.20
2023-01-19T03:27:30.831Z,17.08
2023-01-19T03:30:14.064Z,17.20
2023-01-19T03:32:54.852Z,16.65
2023-01-19T03:35:32.303Z,16.58
2023-01-19T03:38:12.667Z,17.27
2023-01-19T03:40:47.712Z,17.77
2023-01-19T03:43:20.993Z,16.20
2023-01-19T03:45:53.924Z,16.85
2023-01-19T03:48:26.609Z,17.13
2023-01-19T03:51:02.371Z,16.35
2023-01-19T03:53:34.781Z,16.77
2023-01-19T03:56:31.907Z,17.52
2023-01-19T03:59:06.006Z,15.50
2023-01-19T04:01:38.111Z,17.05
2023-01-19T04:04:10.141Z,16.65
2023-01-19T04:06:43.738Z,17.98
2023-01-19T04:09:15.735Z,16.05
2023-01-19T04:11:47.815Z,16.52
2023-01-19T04:14:19.935Z,17.35
2023-01-19T04:16:52.211Z,16.52
2023-01-19T04:19:24.978Z,15.20
2023-01-19T04:21:57.051Z,16.27
2023-01-19T04:24:29.326Z,17.55
2023-01-19T04:27:01.336Z,15.73
2023-01-19T04:29:33.356Z,16.55
2023-01-19T04:32:05.795Z,16.05
2023-01-19T04:34:37.761Z,16.65
2023-01-19T04:37:10.453Z,16.27
2023-01-19T04:39:42.407Z,16.73
2023-01-19T04:42:17.623Z,16.45
2023-01-19T04:44:49.647Z,16.95
2023-01-19T04:47:21.688Z,17.85
2023-01-19T04:49:53.641Z,17.17
2023-01-19T04:52:26.267Z,15.98
2023-01-19T04:54:58.240Z,18.08
2023-01-19T04:57:33.682Z,17.58
2023-01-19T05:00:07.589Z,18.42
2023-01-19T05:02:42.347Z,17.88
2023-01-19T05:05:17.349Z,19.80
2023-01-19T05:07:49.330Z,19.50
2023-01-19T05:10:21.471Z,19.45
2023-01-19T05:12:53.418Z,18.95
2023-01-19T05:15:25.512Z,19.20
2023-01-19T05:17:58.208Z,20.88
2023-01-19T05:20:30.328Z,21.60
2023-01-19T05:23:02.777Z,20.27
2023-01-19T05:25:35.134Z,22.02
2023-01-19T05:28:07.895Z,21.95
2023-01-19T05:30:40.034Z,21.70
2023-01-19T05:33:12.111Z,21.73
2023-01-19T05:35:44.073Z,22.50
2023-01-19T05:38:20.813Z,22.65
2023-01-19T05:40:58.948Z,22.23
2023-01-19T05:43:30.963Z,22.77
2023-01-19T05:46:06.558Z,22.50
2023-01-19T05:48:38.610Z,23.75
2023-01-19T05:51:10.906Z,22.30
2023-01-19T05:53:43.709Z,21.75
2023-01-19T05:56:15.720Z,21.63
2023-01-19T05:58:47.728Z,24.00
2023-01-19T06:01:19.827Z,23.77
2023-01-19T06:03:52.134Z,24.05
2023-01-19T06:06:24.146Z,24.38
2023-01-19T06:08:56.209Z,21.92
2023-01-19T06:11:28.889Z,21.88
2023-01-19T06:14:01.047Z,23.58
2023-01-19T06:16:33.107Z,22.98
2023-01-19T06:19:05.237Z,22.23
2023-01-19T06:21:37.958Z,21.90
2023-01-19T06:24:10.235Z,21.42
2023-01-19T06:26:44.953Z,21.17
2023-01-19T06:29:18.822Z,21.55
2023-01-19T06:31:50.972Z,20.58
2023-01-19T06:34:27.187Z,21.00
2023-01-19T06:36:59.580Z,19.25
2023-01-19T06:39:31.678Z,20.30
2023-01-19T06:42:03.945Z,18.85
2023-01-19T06:44:38.804Z,19.98
2023-01-19T06:47:14.993Z,20.65
2023-01-19T06:49:48.295Z,19.02
2023-01-19T06:52:20.754Z,19.45
2023-01-19T06:54:52.754Z,18.23
2023-01-19T06:57:26.010Z,18.58
2023-01-19T07:00:00.797Z,18.73
2023-01-19T07:02:33.245Z,18.88
2023-01-19T07:05:07.070Z,18.63
2023-01-19T07:07:39.797Z,17.25
2023-01-19T07:10:16.495Z,18.88
2023-01-19T07:12:48.961Z,16.95
2023-01-19T07:15:23.109Z,17.50
2023-01-19T07:18:00.156Z,17.75
2023-01-19T07:20:32.324Z,17.75
2023-01-19T07:23:04.720Z,18.90
2023-01-19T07:25:36.785Z,18.52
2023-01-19T07:28:09.315Z,17.38
2023-01-19T07:30:46.360Z,17.33
2023-01-19T07:33:18.522Z,18.02
2023-01-19T07:35:51.080Z,17.75
2023-01-19T07:38:23.152Z,18.45
2023-01-19T07:41:05.372Z,18.77
2023-01-19T07:43:37.402Z,17.85
2023-01-19T07:46:10.144Z,17.52
2023-01-19T07:48:44.500Z,18.83
2023-01-19T07:51:19.636Z,17.60
2023-01-19T07:53:51.908Z,18.95
2023-01-19T07:56:24.861Z,19.67
2023-01-19T07:58:56.935Z,18.95
2023-01-19T08:01:29.868Z,19.33
2023-01-19T08:04:02.017Z,19.45
2023-01-19T08:06:37.641Z,18.70
2023-01-19T08:09:10.127Z,18.08
2023-01-19T08:11:42.745Z,18.05
2023-01-19T08:14:14.753Z,18.80
2023-01-19T08:16:46.869Z,18.88
2023-01-19T08:19:19.571Z,16.77
2023-01-19T08:21:52.363Z,19.38
2023-01-19T08:24:28.641Z,17.83
2023-01-19T08:27:04.155Z,18.48
2023-01-19T08:29:36.540Z,16.25
2023-01-19T08:32:08.749Z,17.83
2023-01-19T08:34:40.875Z,17.83
2023-01-19T08:37:12.886Z,17.35
2023-01-19T08:39:44.876Z,17.75
2023-01-19T08:42:16.863Z,18.20
2023-01-19T08:44:57.539Z,18.23
2023-01-19T08:47:30.144Z,17.88
2023-01-19T08:50:02.337Z,17.33
2023-01-19T08:52:34.323Z,17.48
2023-01-19T08:55:07.623Z,17.30
2023-01-19T08:57:40.044Z,17.77
2023-01-19T09:00:13.187Z,18.15
2023-01-19T09:02:45.454Z,18.10
2023-01-19T09:05:18.353Z,18.02
2023-01-19T09:07:51.831Z,17.52
2023-01-19T09:10:23.814Z,17.67
2023-01-19T09:12:55.815Z,15.90
2023-01-19T09:15:28.329Z,17.23
2023-01-19T09:18:01.173Z,16.85
2023-01-19T09:20:36.187Z,16.67
2023-01-19T09:23:13.197Z,17.27
2023-01-19T09:25:47.370Z,15.60
2023-01-19T09:28:19.349Z,16.65
2023-01-19T09:30:52.242Z,15.48
2023-01-19T09:33:24.926Z,16.55
2023-01-19T09:52:37.446Z,14.70
2023-01-19T09:55:26.458Z,14.68
2023-01-19T09:57:59.282Z,15.55
2023-01-19T10:00:33.628Z,15.82
2023-01-19T10:03:14.448Z,15.57
2023-01-19T10:06:03.817Z,15.43
2023-01-19T10:08:57.585Z,15.43
2023-01-19T10:11:51.859Z,17.35
2023-01-19T10:14:40.549Z,15.68
2023-01-19T10:17:32.483Z,15.88
2023-01-19T10:20:15.383Z,15.77
2023-01-19T10:22:49.969Z,17.95
2023-01-19T10:25:27.110Z,17.55
2023-01-19T10:28:01.428Z,15.55
2023-01-19T10:30:33.911Z,17.13
2023-01-19T10:33:06.464Z,17.42
2023-01-19T10:35:38.570Z,15.38
2023-01-19T10:38:15.584Z,16.25
2023-01-19T10:41:46.236Z,19.02
2023-01-19T10:44:30.246Z,16.65
2023-01-19T10:47:05.201Z,18.45
2023-01-19T10:49:44.955Z,20.45
2023-01-19T10:52:36.387Z,23.10
2023-01-19T10:55:40.666Z,22.38
2023-01-19T10:58:35.160Z,20.20
2023-01-19T11:01:24.872Z,21.25
2023-01-19T11:04:05.793Z,21.02
2023-01-19T11:06:40.423Z,20.45
2023-01-19T11:09:25.948Z,20.83
2023-01-19T11:12:00.094Z,19.38
2023-01-19T11:14:32.404Z,21.10
2023-01-19T11:17:04.472Z,18.70
2023-01-19T11:19:36.527Z,17.48
2023-01-19T11:22:24.265Z,18.95
2023-01-19T11:25:02.108Z,15.23
2023-01-19T11:27:37.771Z,16.98
2023-01-19T11:30:26.038Z,16.50
2023-01-19T11:32:58.233Z,14.95
2023-01-19T11:35:41.685Z,14.40
2023-01-19T11:38:19.843Z,14.65
2023-01-19T11:40:58.665Z,13.30
2023-01-19T11:43:47.468Z,10.77
2023-01-19T11:46:24.191Z,9.55
2023-01-19T11:49:05.891Z,10.40
2023-01-19T11:52:05.329Z,9.25
2023-01-19T11:54:56.405Z,8.77
2023-01-19T11:57:28.446Z,8.43
2023-01-19T12:00:05.333Z,8.57
2023-01-19T12:02:48.096Z,8.02
2023-01-19T12:05:21.644Z,5.53
2023-01-19T12:07:56.775Z,5.90
2023-01-19T12:10:35.325Z,5.88
2023-01-19T12:13:18.750Z,4.78
2023-01-19T12:16:00.830Z,4.15
2023-01-19T12:18:48.444Z,4.07
2023-01-19T12:21:21.237Z,3.08
2023-01-19T12:24:16.543Z,3.63
2023-01-19T12:26:59.527Z,3.08
2023-01-19T12:29:35.208Z,4.07
2023-01-19T12:32:17.706Z,3.55
2023-01-19T12:35:29.704Z,3.88
2023-01-19T12:38:37.118Z,3.88
2023-01-19T12:41:37.453Z,4.72
2023-01-19T12:46:50.243Z,4.30
2023-01-19T12:50:34.399Z,3.72
2023-01-19T12:53:19.740Z,3.40
2023-01-19T12:56:01.254Z,3.25
2023-01-19T12:58:51.574Z,3.90
2023-01-19T13:06:08.211Z,2.90
2023-01-19T13:09:01.255Z,2.88
2023-01-19T13:11:53.745Z,3.35
2023-01-19T13:14:38.757Z,3.00
2023-01-19T13:21:04.916Z,2.40
2023-01-19T13:23:51.565Z,3.53
2023-01-19T13:26:39.370Z,2.40
2023-01-19T13:29:16.099Z,3.15
2023-01-19T13:31:49.181Z,2.67
2023-01-19T13:34:25.551Z,2.72
2023-01-19T13:38:02.197Z,2.40
2023-01-19T13:40:40.874Z,3.00
2023-01-19T13:43:28.454Z,2.63
2023-01-19T13:46:01.041Z,4.07
2023-01-19T13:48:33.569Z,3.08
2023-01-19T13:51:10.624Z,2.55
2023-01-19T13:54:02.324Z,2.67
2023-01-19T13:56:34.325Z,2.75
2023-01-19T13:59:13.984Z,3.95
2023-01-19T14:01:47.037Z,3.28
2023-01-19T14:04:35.820Z,2.30
2023-01-19T14:07:26.157Z,2.83
2023-01-19T14:10:05.782Z,2.38
2023-01-19T14:12:48.121Z,2.45
2023-01-19T14:15:28.173Z,3.28
2023-01-19T14:19:31.460Z,2.80
2023-01-19T14:22:05.518Z,2.45
2023-01-19T14:24:38.843Z,1.95
2023-01-19T14:28:32.753Z,2.55
2023-01-19T14:31:27.622Z,2.63
2023-01-19T14:33:59.683Z,3.45
2023-01-19T14:36:40.041Z,2.78
2023-01-19T14:39:23.503Z,2.50
2023-01-19T14:42:00.080Z,2.40
2023-01-19T14:44:36.722Z,2.13
2023-01-19T14:47:41.678Z,2.35
2023-01-19T14:50:35.415Z,2.40
2023-01-19T14:53:17.366Z,2.30
2023-01-19T14:55:59.369Z,3.55
2023-01-19T14:58:35.479Z,2.17
2023-01-19T15:01:11.247Z,2.60
2023-01-19T15:03:45.420Z,2.75
2023-01-19T15:06:20.897Z,3.63
2023-01-19T15:08:53.994Z,4.13
2023-01-19T15:11:35.601Z,4.15
2023-01-19T15:14:12.199Z,3.35
2023-01-19T15:16:44.476Z,4.05
2023-01-19T15:19:17.765Z,4.10
2023-01-19T15:21:49.835Z,3.35
2023-01-19T15:24:21.992Z,3.63
2023-01-19T15:27:01.688Z,3.40
2023-01-19T15:29:34.239Z,2.55
2023-01-19T15:32:13.194Z,2.70
2023-01-19T15:34:47.850Z,2.75
2023-01-19T15:37:20.117Z,2.35
2023-01-19T15:39:52.489Z,1.70
2023-01-19T15:42:24.520Z,2.25
2023-01-19T15:44:56.597Z,1.95
2023-01-19T15:47:28.562Z,2.08
2023-01-19T15:50:00.632Z,2.15
2023-01-19T15:52:32.703Z,2.22
2023-01-19T15:55:05.290Z,2.35
2023-01-19T15:57:37.318Z,2.10
2023-01-19T16:00:14.955Z,1.88
2023-01-19T16:02:47.162Z,2.25
2023-01-19T16:05:19.611Z,2.60
2023-01-19T16:07:51.742Z,2.47
2023-01-19T16:10:23.834Z,2.72
2023-01-19T16:12:55.782Z,2.45
2023-01-19T16:15:28.968Z,3.05
2023-01-19T16:18:01.065Z,2.65
2023-01-19T16:20:33.092Z,2.85
2023-01-19T16:23:21.100Z,3.60
2023-01-19T16:25:59.029Z,3.25
2023-01-19T16:28:31.988Z,2.10
2023-01-19T16:31:04.901Z,2.55
2023-01-19T16:33:36.908Z,3.58
2023-01-19T16:36:30.993Z,2.88
2023-01-19T16:39:10.783Z,2.25
2023-01-19T16:41:45.087Z,3.42
2023-01-19T16:44:17.769Z,3.35
2023-01-19T16:46:52.636Z,2.90
2023-01-19T16:49:28.531Z,3.78
2023-01-19T16:52:01.332Z,3.28
2023-01-19T16:54:33.439Z,3.70
2023-01-19T16:57:05.479Z,5.72
2023-01-19T16:59:40.348Z,3.83
2023-01-19T17:02:12.607Z,5.22
2023-01-19T17:04:44.654Z,4.32
2023-01-19T17:07:18.998Z,4.05
2023-01-19T17:09:51.313Z,3.60
2023-01-19T17:12:23.411Z,3.55
2023-01-19T17:14:55.486Z,3.75
2023-01-19T17:17:27.734Z,3.72
2023-01-19T17:20:00.358Z,3.58
2023-01-19T17:22:32.455Z,3.20
2023-01-19T17:25:04.975Z,3.17
2023-01-19T17:27:37.095Z,3.33
2023-01-19T17:30:10.535Z,2.67
2023-01-19T17:32:42.770Z,3.08
2023-01-19T17:35:14.799Z,3.13
2023-01-19T17:37:46.807Z,5.45
2023-01-19T17:40:18.843Z,7.80
2023-01-19T17:42:50.929Z,7.38
2023-01-19T17:45:22.910Z,6.22
2023-01-19T17:47:57.879Z,5.70
2023-01-19T17:50:32.220Z,5.50
2023-01-19T17:53:04.360Z,5.13
2023-01-19T17:55:36.694Z,6.18
2023-01-19T17:58:08.669Z,5.65
2023-01-19T18:00:41.388Z,5.35
2023-01-19T18:03:13.451Z,6.18
2023-01-19T18:05:54.244Z,6.03
2023-01-19T18:08:26.308Z,8.15
2023-01-19T18:11:00.494Z,6.25
2023-01-19T18:13:32.805Z,4.30
2023-01-19T18:16:08.992Z,4.85
2023-01-19T18:18:41.431Z,4.47
2023-01-19T18:21:15.464Z,4.22
2023-01-19T18:23:49.303Z,4.07
2023-01-19T18:26:23.361Z,4.93
2023-01-19T18:29:00.288Z,4.18
2023-01-19T18:31:32.691Z,4.47
2023-01-19T18:34:05.045Z,3.63
2023-01-19T18:36:37.525Z,4.18
2023-01-19T18:39:10.335Z,3.67
2023-01-19T18:41:42.869Z,3.67
2023-01-19T18:44:15.584Z,6.68
2023-01-19T18:46:48.433Z,13.05
2023-01-19T18:49:25.829Z,6.13
2023-01-19T18:51:57.815Z,4.72
2023-01-19T18:54:29.840Z,5.57
2023-01-19T18:57:01.802Z,6.78
2023-01-19T18:59:34.036Z,6.03
2023-01-19T19:02:08.251Z,4.88
2023-01-19T19:04:41.465Z,5.32
2023-01-19T19:07:13.640Z,5.53
2023-01-19T19:09:45.595Z,4.72
2023-01-19T19:12:17.648Z,4.60
2023-01-19T19:14:50.242Z,4.05
2023-01-19T19:17:22.219Z,4.22
2023-01-19T19:19:54.246Z,4.70
2023-01-19T19:22:29.901Z,4.68
2023-01-19T19:25:01.958Z,4.72
2023-01-19T19:27:33.993Z,4.47
2023-01-19T19:30:08.663Z,5.95
2023-01-19T19:32:40.650Z,7.45
2023-01-19T19:35:12.687Z,6.65
2023-01-19T19:37:44.703Z,6.88
2023-01-19T19:40:17.849Z,5.45
2023-01-19T19:42:49.832Z,5.40
2023-01-19T19:45:21.866Z,4.88
2023-01-19T19:47:59.091Z,6.43
2023-01-19T19:50:31.472Z,6.45
2023-01-19T19:53:03.673Z,5.85
2023-01-19T19:55:35.707Z,6.55
2023-01-19T19:58:08.780Z,6.22
2023-01-19T20:00:42.841Z,6.13
2023-01-19T20:03:14.814Z,5.95
2023-01-19T20:05:47.771Z,6.22
2023-01-19T20:08:19.817Z,5.93
2023-01-19T20:10:51.800Z,7.57
2023-01-19T20:13:23.804Z,7.68
2023-01-19T20:15:55.823Z,7.82
2023-01-19T20:18:27.858Z,9.20
2023-01-19T20:21:00.548Z,10.05
2023-01-19T20:23:33.721Z,8.45
2023-01-19T20:26:08.159Z,7.45
2023-01-19T20:28:40.330Z,5.88
2023-01-19T20:31:19.578Z,6.75
2023-01-19T20:33:54.119Z,9.00
2023-01-19T20:36:26.227Z,13.82
2023-01-19T20:38:58.898Z,7.28
2023-01-19T20:41:31.060Z,10.10
2023-01-19T20:44:03.091Z,8.65
2023-01-19T20:46:35.104Z,11.68
2023-01-19T20:49:07.526Z,8.70
2023-01-19T20:51:43.493Z,8.18
2023-01-19T20:54:19.210Z,8.25
2023-01-19T20:56:51.206Z,6.43
2023-01-19T20:59:24.038Z,10.68
2023-01-19T21:01:56.198Z,6.75
2023-01-19T21:04:28.359Z,4.85
2023-01-19T21:07:01.032Z,4.45
2023-01-19T21:09:33.027Z,3.75
2023-01-19T21:12:08.029Z,4.00
2023-01-19T21:14:42.114Z,4.03
2023-01-19T21:17:17.721Z,3.60
2023-01-19T21:19:49.746Z,4.00
2023-01-19T21:22:21.796Z,3.78
2023-01-19T21:24:53.786Z,3.60
2023-01-19T21:27:25.914Z,3.55
2023-01-19T21:30:02.350Z,3.58
2023-01-19T21:32:34.429Z,5.57
2023-01-19T21:35:07.087Z,4.07
2023-01-19T21:37:39.119Z,5.07
2023-01-19T21:40:12.408Z,4.28
2023-01-19T21:42:44.379Z,3.22
2023-01-19T21:45:19.510Z,3.90
2023-01-19T21:47:51.630Z,4.35
2023-01-19T21:50:23.796Z,4.93
2023-01-19T21:52:55.900Z,5.28
2023-01-19T21:55:28.253Z,5.80
2023-01-19T21:58:00.329Z,5.38
2023-01-19T22:00:32.483Z,6.43
2023-01-19T22:03:05.027Z,6.80
2023-01-19T22:05:37.938Z,6.95
2023-01-19T22:08:10.010Z,6.53
2023-01-19T22:10:42.050Z,6.90
2023-01-19T22:13:14.233Z,7.00
2023-01-19T22:15:46.207Z,7.43
2023-01-19T22:18:18.399Z,6.18
2023-01-19T22:20:50.373Z,6.88
2023-01-19T22:23:22.468Z,7.22
2023-01-19T22:25:54.460Z,8.60
2023-01-19T22:28:26.478Z,7.68
2023-01-19T22:31:13.392Z,7.65
2023-01-19T22:33:45.753Z,9.93
2023-01-19T22:36:23.079Z,10.18
2023-01-19T22:39:06.191Z,10.95
2023-01-19T22:41:44.963Z,12.55
2023-01-19T22:44:21.210Z,12.77
2023-01-19T22:46:56.089Z,13.88
2023-01-19T22:49:28.375Z,14.77
2023-01-19T22:52:00.555Z,18.23
2023-01-19T22:54:32.748Z,17.63
2023-01-19T22:57:06.982Z,15.57
2023-01-19T22:59:43.847Z,16.92
2023-01-19T23:02:16.215Z,18.55
2023-01-19T23:04:48.221Z,18.38
2023-01-19T23:07:20.485Z,18.00
2023-01-19T23:09:52.440Z,19.92
2023-01-19T23:12:24.836Z,19.60
2023-01-19T23:14:56.816Z,20.27
2023-01-19T23:17:28.811Z,20.60
2023-01-19T23:20:00.867Z,20.67
2023-01-19T23:22:32.857Z,20.98
2023-01-19T23:25:11.218Z,21.25
2023-01-19T23:27:43.383Z,23.23
2023-01-19T23:30:15.866Z,22.77
2023-01-19T23:32:49.337Z,21.45
2023-01-19T23:35:21.380Z,21.23
2023-01-19T23:37:53.346Z,23.30
2023-01-19T23:40:25.433Z,23.73
2023-01-19T23:42:57.619Z,22.83
2023-01-19T23:45:33.745Z,26.08
2023-01-19T23:48:06.221Z,24.10
2023-01-19T23:50:40.947Z,24.30
2023-01-19T23:53:13.250Z,23.23
2023-01-19T23:55:45.264Z,25.45
2023-01-19T23:58:17.247Z,26.15
